createdAt,value
2022-11-07T00:01:28.693Z,0.40
2022-11-07T00:03:57.656Z,0.20
2022-11-07T00:06:25.814Z,0.40
2022-11-07T00:08:53.992Z,0.30
2022-11-07T00:11:22.122Z,0.35
2022-11-07T00:13:50.288Z,0.30
2022-11-07T00:16:18.545Z,0.40
2022-11-07T00:18:46.584Z,0.20
2022-11-07T00:21:15.266Z,0.30
2022-11-07T00:26:16.372Z,0.40
2022-11-07T00:28:45.656Z,0.30
2022-11-07T00:31:15.349Z,0.40
2022-11-07T00:33:44.185Z,0.30
2022-11-07T00:36:22.752Z,0.30
2022-11-07T00:41:19.766Z,0.40
2022-11-07T00:43:48.168Z,0.40
2022-11-07T00:46:17.602Z,0.30
2022-11-07T00:48:46.042Z,0.32
2022-11-07T00:51:26.245Z,0.70
2022-11-07T00:53:54.755Z,0.32
2022-11-07T00:56:25.621Z,0.30
2022-11-07T00:58:58.703Z,0.43
2022-11-07T01:01:29.840Z,0.13
2022-11-07T01:03:58.721Z,0.25
2022-11-07T01:08:59.187Z,0.20
2022-11-07T01:14:01.756Z,0.40
2022-11-07T01:16:31.166Z,0.40
2022-11-07T01:18:59.564Z,0.50
2022-11-07T01:21:27.938Z,0.30
2022-11-07T01:23:56.077Z,0.30
2022-11-07T01:26:24.276Z,0.30
2022-11-07T01:28:52.439Z,0.40
2022-11-07T01:31:21.200Z,0.47
2022-11-07T01:36:20.665Z,0.30
2022-11-07T01:38:49.638Z,0.40
2022-11-07T01:41:21.358Z,0.40
2022-11-07T01:44:02.870Z,0.30
2022-11-07T01:46:42.213Z,0.73
2022-11-07T01:49:13.876Z,0.30
2022-11-07T01:51:48.855Z,0.30
2022-11-07T01:54:23.218Z,0.30
2022-11-07T01:56:52.283Z,0.50
2022-11-07T01:59:23.552Z,0.55
2022-11-07T02:01:51.970Z,0.75
2022-11-07T02:04:23.021Z,0.60
2022-11-07T02:07:00.951Z,0.32
2022-11-07T02:09:30.503Z,0.30
2022-11-07T02:11:58.792Z,0.30
2022-11-07T02:14:27.878Z,0.45
2022-11-07T02:16:56.572Z,0.50
2022-11-07T02:19:35.827Z,0.55
2022-11-07T02:22:10.181Z,0.60
2022-11-07T02:24:39.678Z,0.38
2022-11-07T02:27:17.504Z,0.50
2022-11-07T02:29:52.694Z,0.50
2022-11-07T02:32:20.890Z,0.30
2022-11-07T02:35:04.151Z,0.65
2022-11-07T02:37:36.189Z,0.80
2022-11-07T02:40:10.375Z,0.80
2022-11-07T02:42:40.012Z,0.50
2022-11-07T02:45:08.583Z,0.52
2022-11-07T02:47:36.736Z,0.30
2022-11-07T02:50:08.379Z,0.40
2022-11-07T02:52:36.939Z,0.45
2022-11-07T02:55:06.617Z,0.57
2022-11-07T02:57:35.109Z,0.52
2022-11-07T03:00:04.257Z,0.60
2022-11-07T03:02:32.577Z,0.57
2022-11-07T03:05:00.792Z,0.50
2022-11-07T03:07:28.950Z,0.50
2022-11-07T03:09:57.085Z,1.05
2022-11-07T03:12:25.183Z,0.60
2022-11-07T03:14:53.296Z,0.60
2022-11-07T03:17:21.531Z,0.63
2022-11-07T03:19:50.135Z,0.90
2022-11-07T03:22:18.953Z,0.45
2022-11-07T03:24:47.523Z,0.82
2022-11-07T03:27:15.689Z,0.77
2022-11-07T03:29:43.952Z,0.85
2022-11-07T03:32:12.422Z,0.73
2022-11-07T03:34:40.436Z,1.17
2022-11-07T03:37:08.700Z,0.50
2022-11-07T03:39:36.688Z,0.70
2022-11-07T03:42:05.022Z,0.82
2022-11-07T03:44:34.128Z,0.77
2022-11-07T03:47:02.231Z,1.08
2022-11-07T03:49:31.098Z,0.90
2022-11-07T03:51:59.223Z,0.70
2022-11-07T03:54:27.882Z,0.70
2022-11-07T03:56:56.014Z,1.15
2022-11-07T03:59:24.180Z,0.95
2022-11-07T04:01:52.917Z,1.05
2022-11-07T04:06:49.079Z,0.80
2022-11-07T04:09:18.165Z,0.95
2022-11-07T04:14:14.342Z,1.05
2022-11-07T04:16:50.708Z,0.73
2022-11-07T04:19:18.939Z,0.70
2022-11-07T04:21:50.702Z,0.85
2022-11-07T04:24:19.544Z,1.10
2022-11-07T04:26:47.638Z,0.80
2022-11-07T04:29:15.762Z,0.95
2022-11-07T04:31:44.426Z,0.90
2022-11-07T04:34:13.032Z,1.02
2022-11-07T04:36:41.261Z,1.08
2022-11-07T04:39:10.671Z,1.23
2022-11-07T04:41:39.526Z,0.73
2022-11-07T04:44:07.660Z,0.65
2022-11-07T04:46:36.081Z,0.70
2022-11-07T04:49:04.246Z,0.85
2022-11-07T04:51:32.420Z,0.80
2022-11-07T04:54:00.838Z,0.85
2022-11-07T04:56:34.190Z,1.10
2022-11-07T04:59:03.555Z,1.25
2022-11-07T05:01:31.927Z,1.50
2022-11-07T05:04:00.348Z,1.10
2022-11-07T05:06:28.527Z,0.77
2022-11-07T05:08:56.808Z,0.90
2022-11-07T05:11:24.918Z,0.63
2022-11-07T05:13:53.017Z,0.80
2022-11-07T05:16:21.538Z,0.60
2022-11-07T05:18:49.556Z,1.00
2022-11-07T05:21:17.766Z,0.90
2022-11-07T05:23:45.918Z,0.85
2022-11-07T05:26:14.046Z,0.80
2022-11-07T05:28:45.453Z,0.98
2022-11-07T05:31:17.132Z,0.70
2022-11-07T05:33:45.896Z,0.70
2022-11-07T05:36:16.371Z,0.93
2022-11-07T05:38:48.758Z,1.05
2022-11-07T05:41:18.826Z,0.95
2022-11-07T05:43:47.909Z,0.60
2022-11-07T05:46:16.870Z,0.40
2022-11-07T05:48:45.786Z,0.57
2022-11-07T05:51:14.011Z,0.45
2022-11-07T05:53:42.127Z,0.60
2022-11-07T05:56:10.248Z,0.55
2022-11-07T05:58:38.758Z,0.68
2022-11-07T06:01:07.731Z,0.50
2022-11-07T06:03:35.998Z,0.50
2022-11-07T06:06:04.126Z,0.80
2022-11-07T06:08:32.299Z,0.70
2022-11-07T06:11:05.627Z,0.50
2022-11-07T06:13:34.068Z,0.60
2022-11-07T06:16:02.077Z,0.70
2022-11-07T06:18:35.563Z,0.65
2022-11-07T06:21:07.608Z,0.70
2022-11-07T06:23:36.130Z,0.47
2022-11-07T06:26:04.143Z,0.80
2022-11-07T06:28:32.389Z,0.85
2022-11-07T06:31:01.685Z,0.60
2022-11-07T06:33:29.994Z,0.57
2022-11-07T06:36:09.243Z,0.68
2022-11-07T06:38:38.920Z,0.50
2022-11-07T06:41:12.848Z,0.60
2022-11-07T06:43:41.518Z,0.52
2022-11-07T06:48:40.747Z,0.38
2022-11-07T06:51:09.129Z,0.40
2022-11-07T06:53:37.766Z,0.60
2022-11-07T06:56:08.544Z,0.52
2022-11-07T06:58:37.374Z,0.50
2022-11-07T07:03:34.129Z,0.57
2022-11-07T07:06:04.785Z,0.40
2022-11-07T07:08:33.671Z,0.35
2022-11-07T07:11:10.792Z,0.35
2022-11-07T07:13:39.298Z,0.40
2022-11-07T07:16:09.282Z,0.55
2022-11-07T07:18:37.681Z,0.38
2022-11-07T07:21:11.222Z,0.30
2022-11-07T07:23:40.339Z,0.50
2022-11-07T07:26:13.225Z,0.60
2022-11-07T07:28:41.980Z,0.25
2022-11-07T07:33:40.625Z,0.30
2022-11-07T07:36:09.759Z,0.35
2022-11-07T07:38:38.040Z,0.70
2022-11-07T07:41:06.804Z,0.50
2022-11-07T07:43:35.179Z,0.70
2022-11-07T07:46:06.047Z,0.47
2022-11-07T07:48:34.607Z,0.60
2022-11-07T07:51:02.953Z,0.55
2022-11-07T07:53:31.351Z,0.52
2022-11-07T07:56:00.792Z,0.43
2022-11-07T07:58:28.954Z,0.52
2022-11-07T08:00:57.312Z,0.40
2022-11-07T08:03:32.097Z,0.80
2022-11-07T08:06:08.328Z,0.50
2022-11-07T08:08:38.393Z,0.60
2022-11-07T08:11:09.193Z,0.40
2022-11-07T08:13:37.921Z,0.85
2022-11-07T08:16:06.899Z,0.40
2022-11-07T08:18:35.555Z,0.50
2022-11-07T08:21:04.162Z,0.68
2022-11-07T08:23:32.973Z,0.40
2022-11-07T08:28:31.876Z,0.40
2022-11-07T08:31:02.442Z,0.52
2022-11-07T08:40:52.288Z,0.40
2022-11-07T08:43:20.868Z,1.00
2022-11-07T08:45:50.157Z,0.47
2022-11-07T08:48:18.498Z,0.40
2022-11-07T08:50:47.234Z,0.90
2022-11-07T08:55:43.735Z,0.63
2022-11-07T08:58:12.982Z,0.60
2022-11-07T09:00:41.370Z,0.70
2022-11-07T09:05:58.906Z,0.50
2022-11-07T09:08:27.070Z,0.60
2022-11-07T09:10:55.229Z,0.55
2022-11-07T09:13:23.616Z,0.70
2022-11-07T09:15:52.157Z,0.85
2022-11-07T09:18:20.810Z,0.75
2022-11-07T09:20:49.524Z,0.70
2022-11-07T09:23:17.934Z,2.42
2022-11-07T09:28:15.490Z,4.03
2022-11-07T09:30:44.213Z,2.75
2022-11-07T09:35:41.826Z,3.47
2022-11-07T09:38:10.009Z,3.47
2022-11-07T09:41:05.346Z,3.28
2022-11-07T09:44:10.091Z,4.07
2022-11-07T09:46:53.578Z,7.30
2022-11-07T09:49:38.838Z,5.45
2022-11-07T09:52:31.997Z,3.15
2022-11-07T09:55:13.684Z,3.13
2022-11-07T09:57:43.904Z,2.67
2022-11-07T10:00:21.296Z,2.78
2022-11-07T10:02:58.703Z,2.85
2022-11-07T10:05:54.829Z,2.67
2022-11-07T10:08:34.367Z,2.22
2022-11-07T10:11:12.352Z,1.98
2022-11-07T10:14:20.152Z,3.03
2022-11-07T10:16:57.652Z,1.92
2022-11-07T10:20:03.117Z,2.22
2022-11-07T10:22:39.564Z,1.92
2022-11-07T10:25:16.799Z,1.70
2022-11-07T10:27:51.348Z,1.55
2022-11-07T10:30:21.621Z,1.60
2022-11-07T10:33:17.405Z,2.13
2022-11-07T10:35:53.070Z,1.83
2022-11-07T10:38:29.370Z,1.35
2022-11-07T10:40:57.923Z,1.65
2022-11-07T10:43:43.244Z,1.83
2022-11-07T10:46:34.596Z,1.83
2022-11-07T10:49:04.610Z,1.50
2022-11-07T10:51:38.310Z,1.75
2022-11-07T10:54:08.167Z,1.20
2022-11-07T10:56:47.411Z,1.33
2022-11-07T10:59:30.084Z,1.45
2022-11-07T11:02:02.390Z,2.15
2022-11-07T11:04:33.616Z,1.20
2022-11-07T11:07:04.665Z,1.73
2022-11-07T11:09:35.025Z,1.83
2022-11-07T11:12:34.104Z,2.03
2022-11-07T11:15:16.823Z,1.58
2022-11-07T11:17:46.564Z,1.20
2022-11-07T11:20:27.246Z,1.30
2022-11-07T11:22:55.845Z,1.25
2022-11-07T11:25:24.200Z,1.33
2022-11-07T11:27:57.024Z,1.90
2022-11-07T11:30:25.589Z,1.35
2022-11-07T11:33:04.190Z,1.15
2022-11-07T11:38:30.251Z,0.97
2022-11-07T11:41:14.546Z,1.30
2022-11-07T11:43:48.221Z,1.20
2022-11-07T11:46:34.017Z,1.10
2022-11-07T11:49:23.658Z,1.73
2022-11-07T11:52:11.739Z,1.05
2022-11-07T11:54:40.147Z,1.35
2022-11-07T11:57:17.824Z,1.48
2022-11-07T12:00:21.541Z,1.20
2022-11-07T12:03:06.305Z,1.45
2022-11-07T12:06:02.461Z,1.27
2022-11-07T12:08:46.574Z,1.20
2022-11-07T12:11:25.496Z,1.20
2022-11-07T12:13:53.729Z,0.90
2022-11-07T12:16:40.186Z,0.77
2022-11-07T12:19:29.250Z,0.95
2022-11-07T12:22:06.482Z,0.75
2022-11-07T12:25:03.148Z,1.02
2022-11-07T12:27:43.538Z,1.00
2022-11-07T12:30:46.893Z,1.42
2022-11-07T12:33:34.576Z,1.15
2022-11-07T12:36:12.849Z,1.05
2022-11-07T12:39:00.471Z,1.02
2022-11-07T12:41:58.170Z,1.67
2022-11-07T12:44:46.282Z,1.55
2022-11-07T12:47:44.714Z,0.73
2022-11-07T12:50:26.429Z,1.02
2022-11-07T12:53:29.628Z,1.08
2022-11-07T12:56:08.408Z,1.15
2022-11-07T12:58:39.764Z,1.08
2022-11-07T13:01:08.671Z,1.23
2022-11-07T13:03:47.573Z,1.25
2022-11-07T13:06:49.111Z,1.27
2022-11-07T13:09:23.386Z,1.23
2022-11-07T13:14:44.188Z,1.40
2022-11-07T13:17:35.590Z,1.33
2022-11-07T13:20:07.715Z,1.27
2022-11-07T13:22:41.122Z,1.33
2022-11-07T13:28:55.760Z,1.20
2022-11-07T13:31:41.182Z,1.50
2022-11-07T13:34:24.745Z,1.45
2022-11-07T13:36:59.854Z,1.20
2022-11-07T13:39:30.697Z,1.60
2022-11-07T13:42:00.500Z,2.33
2022-11-07T13:44:35.852Z,4.15
2022-11-07T13:47:12.586Z,4.40
2022-11-07T13:49:47.453Z,3.58
2022-11-07T13:52:27.454Z,3.17
2022-11-07T13:55:11.463Z,4.72
2022-11-07T13:57:44.208Z,3.47
2022-11-07T14:00:18.272Z,4.53
2022-11-07T14:02:58.768Z,4.75
2022-11-07T14:05:30.432Z,4.63
2022-11-07T14:08:06.043Z,4.53
2022-11-07T14:10:43.324Z,4.78
2022-11-07T14:13:21.079Z,6.15
2022-11-07T14:15:52.232Z,6.43
2022-11-07T14:18:22.863Z,5.85
2022-11-07T14:20:54.138Z,5.70
2022-11-07T14:23:27.119Z,5.25
2022-11-07T14:26:00.706Z,5.30
2022-11-07T14:28:36.949Z,6.05
2022-11-07T14:31:09.686Z,5.50
2022-11-07T14:33:38.126Z,5.22
2022-11-07T14:36:07.168Z,5.90
2022-11-07T14:38:35.790Z,5.15
2022-11-07T14:41:06.415Z,5.30
2022-11-07T14:43:34.940Z,5.22
2022-11-07T14:46:13.729Z,5.20
2022-11-07T14:48:44.649Z,5.00
2022-11-07T14:51:15.644Z,5.07
2022-11-07T14:53:45.338Z,7.18
2022-11-07T14:56:17.512Z,9.88
2022-11-07T14:58:47.385Z,11.82
2022-11-07T15:01:29.678Z,29.08
2022-11-07T15:04:26.700Z,26.60
2022-11-07T15:06:55.023Z,21.40
2022-11-07T15:09:33.242Z,15.05
2022-11-07T15:12:01.891Z,13.20
2022-11-07T15:14:35.846Z,8.88
2022-11-07T15:17:05.025Z,6.80
2022-11-07T15:19:36.761Z,6.28
2022-11-07T15:22:06.087Z,5.07
2022-11-07T15:24:46.773Z,4.80
2022-11-07T15:27:15.215Z,4.95
2022-11-07T15:30:00.887Z,4.18
2022-11-07T15:32:47.148Z,4.50
2022-11-07T15:38:07.910Z,3.25
2022-11-07T15:40:36.352Z,3.10
2022-11-07T15:43:04.527Z,3.55
2022-11-07T15:45:33.018Z,3.08
2022-11-07T15:48:01.336Z,3.30
2022-11-07T15:50:30.825Z,3.08
2022-11-07T15:52:59.151Z,3.05
2022-11-07T15:55:27.542Z,2.60
2022-11-07T15:57:56.445Z,2.67
2022-11-07T16:00:26.579Z,2.45
2022-11-07T16:02:55.143Z,2.22
2022-11-07T16:05:23.345Z,2.88
2022-11-07T16:07:51.798Z,2.10
2022-11-07T16:10:24.413Z,2.70
2022-11-07T16:12:53.909Z,2.38
2022-11-07T16:15:24.781Z,2.45
2022-11-07T16:17:53.120Z,2.03
2022-11-07T16:20:23.961Z,1.92
2022-11-07T16:22:52.392Z,2.45
2022-11-07T16:25:24.537Z,2.67
2022-11-07T16:27:55.159Z,2.17
2022-11-07T16:30:23.767Z,2.38
2022-11-07T16:32:52.371Z,2.67
2022-11-07T16:37:48.843Z,1.90
2022-11-07T16:40:19.833Z,2.15
2022-11-07T16:42:48.197Z,1.75
2022-11-07T16:45:18.672Z,1.67
2022-11-07T16:47:46.950Z,1.90
2022-11-07T16:50:16.528Z,2.03
2022-11-07T16:52:44.947Z,1.77
2022-11-07T16:55:18.129Z,1.90
2022-11-07T16:57:47.330Z,1.95
2022-11-07T17:00:23.863Z,1.98
2022-11-07T17:02:52.536Z,1.77
2022-11-07T17:05:23.544Z,1.85
2022-11-07T17:07:51.844Z,1.42
2022-11-07T17:10:20.034Z,2.15
2022-11-07T17:12:48.218Z,1.90
2022-11-07T17:15:16.550Z,1.42
2022-11-07T17:17:44.902Z,1.88
2022-11-07T17:23:19.433Z,1.98
2022-11-07T17:25:51.543Z,1.65
2022-11-07T17:28:20.814Z,2.33
2022-11-07T17:30:49.025Z,1.98
2022-11-07T17:33:17.183Z,2.60
2022-11-07T17:35:45.614Z,1.83
2022-11-07T17:38:19.573Z,1.90
2022-11-07T17:40:48.271Z,1.58
2022-11-07T17:43:16.447Z,1.70
2022-11-07T17:45:44.780Z,1.98
2022-11-07T17:48:13.016Z,2.08
2022-11-07T17:50:41.329Z,2.20
2022-11-07T17:53:10.713Z,2.13
2022-11-07T17:55:38.908Z,2.08
2022-11-07T17:58:07.151Z,2.05
2022-11-07T18:00:35.303Z,1.63
2022-11-07T18:03:03.485Z,1.83
2022-11-07T18:05:33.408Z,1.67
2022-11-07T18:08:02.395Z,1.80
2022-11-07T18:12:58.445Z,1.60
2022-11-07T18:15:26.622Z,2.00
2022-11-07T18:17:54.934Z,2.05
2022-11-07T18:20:23.951Z,1.80
2022-11-07T18:22:52.122Z,1.85
2022-11-07T18:25:20.488Z,1.90
2022-11-07T18:27:49.653Z,2.03
2022-11-07T18:30:18.211Z,2.00
2022-11-07T18:32:46.421Z,1.88
2022-11-07T18:35:14.609Z,2.08
2022-11-07T18:37:42.975Z,1.73
2022-11-07T18:40:11.816Z,1.90
2022-11-07T18:42:46.457Z,1.67
2022-11-07T18:45:14.977Z,2.55
2022-11-07T18:47:43.165Z,1.70
2022-11-07T18:50:11.500Z,1.98
2022-11-07T18:52:39.678Z,1.90
2022-11-07T18:55:08.306Z,2.40
2022-11-07T18:57:36.511Z,2.85
2022-11-07T19:00:10.559Z,1.77
2022-11-07T19:02:41.490Z,1.55
2022-11-07T19:05:09.845Z,1.70
2022-11-07T19:07:37.978Z,1.80
2022-11-07T19:10:06.812Z,1.67
2022-11-07T19:15:02.851Z,1.80
2022-11-07T19:17:31.042Z,2.03
2022-11-07T19:19:59.296Z,2.50
2022-11-07T19:22:27.510Z,2.28
2022-11-07T19:24:55.912Z,2.08
2022-11-07T19:27:24.140Z,2.22
2022-11-07T19:29:52.408Z,2.17
2022-11-07T19:32:20.884Z,2.40
2022-11-07T19:34:49.076Z,2.60
2022-11-07T19:37:17.143Z,2.58
2022-11-07T19:39:46.036Z,2.30
2022-11-07T19:42:14.363Z,2.05
2022-11-07T19:44:48.423Z,2.20
2022-11-07T19:47:18.736Z,2.05
2022-11-07T19:49:47.046Z,2.00
2022-11-07T19:52:15.423Z,2.35
2022-11-07T19:54:43.611Z,1.98
2022-11-07T19:57:12.032Z,2.53
2022-11-07T19:59:40.366Z,2.38
2022-11-07T20:02:31.616Z,2.28
2022-11-07T20:04:58.429Z,1.90
2022-11-07T20:07:26.721Z,2.30
2022-11-07T20:09:54.953Z,2.20
2022-11-07T20:12:23.174Z,2.47
2022-11-07T20:14:51.460Z,1.80
2022-11-07T20:17:19.814Z,2.30
2022-11-07T20:19:48.040Z,3.05
2022-11-07T20:22:16.241Z,2.35
2022-11-07T20:24:44.520Z,3.20
2022-11-07T20:27:12.750Z,2.70
2022-11-07T20:29:40.958Z,2.53
2022-11-07T20:32:09.301Z,2.78
2022-11-07T20:34:37.687Z,3.33
2022-11-07T20:37:05.885Z,3.38
2022-11-07T20:39:34.274Z,3.00
2022-11-07T20:42:02.612Z,3.25
2022-11-07T20:44:30.859Z,3.30
2022-11-07T20:46:59.102Z,3.35
2022-11-07T20:49:27.339Z,3.40
2022-11-07T20:51:55.878Z,3.13
2022-11-07T20:54:24.145Z,2.80
2022-11-07T20:56:52.475Z,3.00
2022-11-07T20:59:20.673Z,3.40
2022-11-07T21:01:48.873Z,3.00
2022-11-07T21:04:17.636Z,3.28
2022-11-07T21:06:46.403Z,3.45
2022-11-07T21:09:14.728Z,3.42
2022-11-07T21:11:43.021Z,3.47
2022-11-07T21:14:11.606Z,3.42
2022-11-07T21:19:08.079Z,3.92
2022-11-07T21:21:36.405Z,3.92
2022-11-07T21:24:04.574Z,3.35
2022-11-07T21:26:36.623Z,3.92
2022-11-07T21:29:07.285Z,3.20
2022-11-07T21:31:37.846Z,3.28
2022-11-07T21:34:07.891Z,3.70
2022-11-07T21:36:36.276Z,4.03
2022-11-07T21:39:05.286Z,3.80
2022-11-07T21:41:34.419Z,3.47
2022-11-07T21:46:32.438Z,3.70
2022-11-07T21:49:00.964Z,3.25
2022-11-07T21:51:31.552Z,3.63
2022-11-07T21:54:00.508Z,3.60
2022-11-07T21:56:31.246Z,3.65
2022-11-07T21:59:06.731Z,3.75
2022-11-07T22:01:36.359Z,3.88
2022-11-07T22:04:11.678Z,4.00
2022-11-07T22:06:46.823Z,4.25
2022-11-07T22:09:17.499Z,3.80
2022-11-07T22:11:46.096Z,4.40
2022-11-07T22:14:20.293Z,4.53
2022-11-07T22:16:52.119Z,4.18
2022-11-07T22:19:20.432Z,4.03
2022-11-07T22:21:49.942Z,4.20
2022-11-07T22:24:18.348Z,3.55
2022-11-07T22:26:46.683Z,4.65
2022-11-07T22:29:14.982Z,4.25
2022-11-07T22:31:43.308Z,4.22
2022-11-07T22:34:11.607Z,4.07
2022-11-07T22:36:39.919Z,5.07
2022-11-07T22:39:08.052Z,4.45
2022-11-07T22:41:36.416Z,4.50
2022-11-07T22:44:04.872Z,4.07
2022-11-07T22:46:33.274Z,5.18
2022-11-07T22:49:01.458Z,4.60
2022-11-07T22:51:32.716Z,4.07
2022-11-07T22:54:13.108Z,4.57
2022-11-07T22:56:41.750Z,4.45
2022-11-07T23:01:41.251Z,5.25
2022-11-07T23:04:14.949Z,5.07
2022-11-07T23:06:43.136Z,4.40
2022-11-07T23:09:15.208Z,4.70
2022-11-07T23:11:47.038Z,4.72
2022-11-07T23:14:18.955Z,4.45
2022-11-07T23:16:49.536Z,4.72
2022-11-07T23:19:19.605Z,4.35
2022-11-07T23:21:48.234Z,5.32
2022-11-07T23:26:44.526Z,4.90
2022-11-07T23:29:19.150Z,4.50
2022-11-07T23:31:49.162Z,4.78
2022-11-07T23:34:19.001Z,4.85
2022-11-07T23:36:50.045Z,4.82
2022-11-07T23:39:21.109Z,4.50
2022-11-07T23:41:49.717Z,4.70
2022-11-07T23:44:18.351Z,4.57
2022-11-07T23:49:14.839Z,4.63
2022-11-07T23:51:43.412Z,4.40
2022-11-07T23:54:11.651Z,3.80
2022-11-07T23:56:40.270Z,5.20
2022-11-07T23:59:08.598Z,4.13
